createdAt,value
2017-03-27T00:00:27.955Z,7.78
2017-03-27T00:01:37.160Z,7.8
2017-03-27T00:02:46.052Z,7.71
2017-03-27T00:03:54.943Z,7.82
2017-03-27T00:05:03.834Z,7.8
2017-03-27T00:06:12.404Z,7.74
2017-03-27T00:07:21.292Z,7.73
2017-03-27T00:08:30.493Z,7.71
2017-03-27T00:09:39.060Z,7.71
2017-03-27T00:10:47.952Z,7.71
2017-03-27T00:11:56.835Z,7.61
2017-03-27T00:13:05.725Z,7.61
2017-03-27T00:14:14.614Z,7.64
2017-03-27T00:15:24.138Z,7.61
2017-03-27T00:16:33.024Z,7.64
2017-03-27T00:17:42.149Z,7.68
2017-03-27T00:18:51.146Z,7.64
2017-03-27T00:20:01.149Z,7.63
2017-03-27T00:21:10.800Z,7.58
2017-03-27T00:22:20.392Z,7.56
2017-03-27T00:23:29.734Z,7.54
2017-03-27T00:24:39.166Z,7.52
2017-03-27T00:25:48.294Z,7.52
2017-03-27T00:26:56.865Z,7.55
2017-03-27T00:28:05.835Z,7.61
2017-03-27T00:29:15.094Z,7.49
2017-03-27T00:30:24.295Z,7.47
2017-03-27T00:31:32.866Z,7.37
2017-03-27T00:32:41.436Z,7.41
2017-03-27T00:33:50.649Z,7.36
2017-03-27T00:34:59.575Z,7.27
2017-03-27T00:36:08.175Z,7.29
2017-03-27T00:37:17.060Z,7.27
2017-03-27T00:38:26.513Z,7.33
2017-03-27T00:39:35.407Z,7.29
2017-03-27T00:40:44.307Z,7.33
2017-03-27T00:41:53.194Z,7.3
2017-03-27T00:43:02.082Z,7.23
2017-03-27T00:44:11.296Z,7.29
2017-03-27T00:45:19.864Z,7.31
2017-03-27T00:46:29.065Z,7.27
2017-03-27T00:47:37.635Z,7.3
2017-03-27T00:48:46.840Z,7.23
2017-03-27T00:49:55.736Z,7.23
2017-03-27T00:51:04.626Z,7.33
2017-03-27T00:52:13.198Z,7.22
2017-03-27T00:53:22.083Z,7.21
2017-03-27T00:54:31.289Z,7.31
2017-03-27T00:55:40.174Z,7.27
2017-03-27T00:56:49.814Z,7.3
2017-03-27T00:57:58.729Z,7.27
2017-03-27T00:59:07.681Z,7.27
2017-03-27T01:00:16.576Z,7.22
2017-03-27T01:01:25.142Z,7.27
2017-03-27T01:02:33.711Z,7.27
2017-03-27T01:03:42.919Z,7.21
2017-03-27T01:04:51.808Z,7.16
2017-03-27T01:06:01.010Z,7.23
2017-03-27T01:07:09.890Z,7.31
2017-03-27T01:08:18.813Z,7.31
2017-03-27T01:09:27.708Z,7.22
2017-03-27T01:10:36.613Z,7.19
2017-03-27T01:11:45.215Z,7.27
2017-03-27T01:12:54.461Z,7.19
2017-03-27T01:14:03.349Z,7.19
2017-03-27T01:15:11.919Z,7.09
2017-03-27T01:16:20.493Z,7.15
2017-03-27T01:17:29.064Z,7.12
2017-03-27T01:18:37.643Z,7.16
2017-03-27T01:19:46.542Z,7.13
2017-03-27T01:20:56.193Z,7.13
2017-03-27T01:22:04.820Z,7.09
2017-03-27T01:23:13.396Z,7.12
2017-03-27T01:24:22.298Z,7
2017-03-27T01:25:31.673Z,7.04
2017-03-27T01:26:41.455Z,7.03
2017-03-27T01:27:50.342Z,7.01
2017-03-27T01:28:59.229Z,7.03
2017-03-27T01:30:07.811Z,7.08
2017-03-27T01:31:16.699Z,7.03
2017-03-27T01:32:25.594Z,7.05
2017-03-27T01:33:34.475Z,6.98
2017-03-27T01:34:43.362Z,7
2017-03-27T01:35:52.878Z,6.98
2017-03-27T01:37:01.764Z,7.01
2017-03-27T01:38:11.291Z,7.15
2017-03-27T01:39:20.809Z,6.98
2017-03-27T01:40:29.383Z,6.98
2017-03-27T01:41:38.583Z,6.98
2017-03-27T01:42:47.151Z,6.95
2017-03-27T01:43:55.726Z,6.93
2017-03-27T01:45:04.929Z,6.98
2017-03-27T01:46:13.500Z,6.95
2017-03-27T01:47:22.393Z,6.9
2017-03-27T01:48:30.959Z,6.91
2017-03-27T01:49:39.853Z,6.82
2017-03-27T01:50:48.745Z,6.86
2017-03-27T01:51:57.311Z,6.86
2017-03-27T01:53:06.516Z,6.79
2017-03-27T01:54:15.085Z,6.82
2017-03-27T01:55:23.973Z,6.78
2017-03-27T01:56:32.859Z,6.67
2017-03-27T01:57:42.058Z,6.78
2017-03-27T01:58:50.952Z,6.75
2017-03-27T01:59:59.527Z,6.68
2017-03-27T02:01:08.435Z,6.65
2017-03-27T02:02:17.636Z,6.7
2017-03-27T02:03:27.153Z,6.67
2017-03-27T02:04:35.774Z,6.64
2017-03-27T02:05:44.657Z,6.61
2017-03-27T02:06:53.852Z,6.61
2017-03-27T02:08:02.740Z,6.58
2017-03-27T02:09:11.320Z,6.55
2017-03-27T02:10:19.891Z,6.55
2017-03-27T02:11:28.459Z,6.6
2017-03-27T02:12:37.027Z,6.62
2017-03-27T02:13:46.232Z,6.62
2017-03-27T02:14:55.115Z,6.55
2017-03-27T02:16:03.687Z,6.51
2017-03-27T02:17:12.884Z,6.37
2017-03-27T02:18:21.459Z,6.51
2017-03-27T02:19:30.353Z,6.36
2017-03-27T02:20:39.556Z,6.39
2017-03-27T02:21:49.070Z,6.39
2017-03-27T02:22:57.640Z,6.39
2017-03-27T02:24:06.532Z,6.44
2017-03-27T02:25:15.097Z,6.4
2017-03-27T02:26:24.295Z,6.36
2017-03-27T02:27:33.493Z,6.42
2017-03-27T02:28:42.698Z,6.36
2017-03-27T02:29:51.270Z,6.37
2017-03-27T02:31:00.160Z,6.42
2017-03-27T02:32:09.047Z,6.39
2017-03-27T02:33:17.614Z,6.36
2017-03-27T02:34:26.819Z,6.24
2017-03-27T02:35:36.023Z,6.34
2017-03-27T02:36:44.591Z,6.33
2017-03-27T02:37:53.798Z,6.28
2017-03-27T02:39:02.365Z,6.31
2017-03-27T02:40:10.939Z,6.34
2017-03-27T02:41:19.821Z,6.29
2017-03-27T02:42:29.667Z,6.25
2017-03-27T02:43:38.552Z,6.28
2017-03-27T02:44:47.456Z,6.2
2017-03-27T02:45:56.976Z,6.13
2017-03-27T02:47:06.178Z,6.15
2017-03-27T02:48:15.060Z,6.09
2017-03-27T02:49:23.635Z,6.05
2017-03-27T02:50:33.153Z,6.05
2017-03-27T02:51:42.037Z,6.07
2017-03-27T02:52:50.604Z,6.07
2017-03-27T02:53:59.493Z,6
2017-03-27T02:55:08.380Z,6.06
2017-03-27T02:56:17.263Z,6.02
2017-03-27T02:57:25.831Z,5.91
2017-03-27T02:58:35.025Z,6
2017-03-27T02:59:44.223Z,5.95
2017-03-27T03:00:53.112Z,5.92
2017-03-27T03:02:01.687Z,5.98
2017-03-27T03:03:10.574Z,5.82
2017-03-27T03:04:19.465Z,5.78
2017-03-27T03:05:28.353Z,5.84
2017-03-27T03:06:37.249Z,5.82
2017-03-27T03:07:46.456Z,5.84
2017-03-27T03:08:55.345Z,5.82
2017-03-27T03:10:04.747Z,5.85
2017-03-27T03:11:13.314Z,5.81
2017-03-27T03:12:22.201Z,5.85
2017-03-27T03:13:31.409Z,5.82
2017-03-27T03:14:40.003Z,5.82
2017-03-27T03:15:49.209Z,5.84
2017-03-27T03:16:58.099Z,5.82
2017-03-27T03:18:07.307Z,5.82
2017-03-27T03:19:16.201Z,5.84
2017-03-27T03:20:25.090Z,5.82
2017-03-27T03:21:33.975Z,5.84
2017-03-27T03:22:42.860Z,5.8
2017-03-27T03:23:51.439Z,5.8
2017-03-27T03:25:00.336Z,5.84
2017-03-27T03:26:09.216Z,5.85
2017-03-27T03:27:18.108Z,5.84
2017-03-27T03:28:27.310Z,5.81
2017-03-27T03:29:35.882Z,5.8
2017-03-27T03:30:44.764Z,5.82
2017-03-27T03:31:53.329Z,5.82
2017-03-27T03:33:02.846Z,5.82
2017-03-27T03:34:11.741Z,5.78
2017-03-27T03:35:20.320Z,5.78
2017-03-27T03:36:28.890Z,5.73
2017-03-27T03:37:37.773Z,5.77
2017-03-27T03:38:46.663Z,5.81
2017-03-27T03:39:55.557Z,5.66
2017-03-27T03:41:04.442Z,5.69
2017-03-27T03:42:13.010Z,5.64
2017-03-27T03:43:21.895Z,5.59
2017-03-27T03:44:30.469Z,5.57
2017-03-27T03:45:39.357Z,5.55
2017-03-27T03:46:47.937Z,5.42
2017-03-27T03:47:56.834Z,5.55
2017-03-27T03:49:05.407Z,5.48
2017-03-27T03:50:13.978Z,5.48
2017-03-27T03:51:22.541Z,5.37
2017-03-27T03:52:31.744Z,5.44
2017-03-27T03:53:40.946Z,5.42
2017-03-27T03:54:50.161Z,5.37
2017-03-27T03:55:59.369Z,5.39
2017-03-27T03:57:08.894Z,5.42
2017-03-27T03:58:18.146Z,5.41
2017-03-27T03:59:27.578Z,5.36
2017-03-27T04:00:37.152Z,5.41
2017-03-27T04:01:46.356Z,5.37
2017-03-27T04:02:54.927Z,5.39
2017-03-27T04:04:03.824Z,5.33
2017-03-27T04:05:12.394Z,5.39
2017-03-27T04:06:21.601Z,5.41
2017-03-27T04:07:30.599Z,5.41
2017-03-27T04:08:39.808Z,5.41
2017-03-27T04:09:48.781Z,5.37
2017-03-27T04:10:57.982Z,5.33
2017-03-27T04:12:07.180Z,5.26
2017-03-27T04:13:16.113Z,5.36
2017-03-27T04:14:25.025Z,5.36
2017-03-27T04:15:33.960Z,5.36
2017-03-27T04:16:42.897Z,5.3
2017-03-27T04:17:51.502Z,5.31
2017-03-27T04:19:00.450Z,5.33
2017-03-27T04:20:09.017Z,5.27
2017-03-27T04:21:17.581Z,5.33
2017-03-27T04:22:27.093Z,5.28
2017-03-27T04:23:35.670Z,5.31
2017-03-27T04:24:44.560Z,5.42
2017-03-27T04:25:53.154Z,5.34
2017-03-27T04:27:02.036Z,5.31
2017-03-27T04:28:10.931Z,5.42
2017-03-27T04:29:20.457Z,5.36
2017-03-27T04:30:29.978Z,5.44
2017-03-27T04:31:38.550Z,5.33
2017-03-27T04:32:47.753Z,5.36
2017-03-27T04:33:56.323Z,5.41
2017-03-27T04:35:05.277Z,5.41
2017-03-27T04:36:14.164Z,5.42
2017-03-27T04:37:23.052Z,5.44
2017-03-27T04:38:31.621Z,5.45
2017-03-27T04:39:40.828Z,5.42
2017-03-27T04:40:49.712Z,5.44
2017-03-27T04:41:58.276Z,5.34
2017-03-27T04:43:07.478Z,5.36
2017-03-27T04:44:16.369Z,5.36
2017-03-27T04:45:25.257Z,5.34
2017-03-27T04:46:34.142Z,5.42
2017-03-27T04:47:42.714Z,5.37
2017-03-27T04:48:51.286Z,5.31
2017-03-27T04:50:00.187Z,5.42
2017-03-27T04:51:09.082Z,5.27
2017-03-27T04:52:18.598Z,5.37
2017-03-27T04:53:28.678Z,5.39
2017-03-27T04:54:37.594Z,5.33
2017-03-27T04:55:46.803Z,5.36
2017-03-27T04:56:56.008Z,5.31
2017-03-27T04:58:04.575Z,5.34
2017-03-27T04:59:13.174Z,5.34
2017-03-27T05:00:21.741Z,5.33
2017-03-27T05:01:30.627Z,5.33
2017-03-27T05:02:39.194Z,5.28
2017-03-27T05:03:48.082Z,5.36
2017-03-27T05:04:56.970Z,5.3
2017-03-27T05:06:05.868Z,5.24
2017-03-27T05:07:14.751Z,5.27
2017-03-27T05:08:23.378Z,5.24
2017-03-27T05:09:32.267Z,5.24
2017-03-27T05:10:41.469Z,5.21
2017-03-27T05:11:50.669Z,5.24
2017-03-27T05:12:59.886Z,5.21
2017-03-27T05:14:09.100Z,5.24
2017-03-27T05:15:17.671Z,5.2
2017-03-27T05:16:26.235Z,5.18
2017-03-27T05:17:34.801Z,5.1
2017-03-27T05:18:44.016Z,5.13
2017-03-27T05:19:53.222Z,5.15
2017-03-27T05:21:01.793Z,5.13
2017-03-27T05:22:10.717Z,5.21
2017-03-27T05:23:19.924Z,5.1
2017-03-27T05:24:28.540Z,5.12
2017-03-27T05:25:37.141Z,5.05
2017-03-27T05:26:45.718Z,5.09
2017-03-27T05:27:54.296Z,5.09
2017-03-27T05:29:03.499Z,5.12
2017-03-27T05:30:13.016Z,5.03
2017-03-27T05:31:21.900Z,5.12
2017-03-27T05:32:30.793Z,5.09
2017-03-27T05:33:39.678Z,5.09
2017-03-27T05:34:48.561Z,5.05
2017-03-27T05:35:57.450Z,5.03
2017-03-27T05:37:06.354Z,5.15
2017-03-27T05:38:14.966Z,5.03
2017-03-27T05:39:23.843Z,5.08
2017-03-27T05:40:32.455Z,5.15
2017-03-27T05:41:41.656Z,5.2
2017-03-27T05:42:50.222Z,5.15
2017-03-27T05:43:58.808Z,5.15
2017-03-27T05:45:07.693Z,5.2
2017-03-27T05:46:16.584Z,5.15
2017-03-27T05:47:25.155Z,5.16
2017-03-27T05:48:34.695Z,5.2
2017-03-27T05:49:43.880Z,5.21
2017-03-27T05:50:52.445Z,5.24
2017-03-27T05:52:01.333Z,5.26
2017-03-27T05:53:10.859Z,5.28
2017-03-27T05:54:19.739Z,5.24
2017-03-27T05:55:28.942Z,5.34
2017-03-27T05:56:38.150Z,5.46
2017-03-27T05:57:47.035Z,5.39
2017-03-27T05:58:55.607Z,5.39
2017-03-27T06:00:04.181Z,5.49
2017-03-27T06:01:13.063Z,5.55
2017-03-27T06:02:21.948Z,5.48
2017-03-27T06:03:30.533Z,5.59
2017-03-27T06:04:39.105Z,5.63
2017-03-27T06:05:47.986Z,5.62
2017-03-27T06:06:56.875Z,5.69
2017-03-27T06:08:05.761Z,5.66
2017-03-27T06:09:14.645Z,5.66
2017-03-27T06:10:23.844Z,5.63
2017-03-27T06:11:33.361Z,5.7
2017-03-27T06:12:41.934Z,5.72
2017-03-27T06:13:50.829Z,5.67
2017-03-27T06:15:00.032Z,5.8
2017-03-27T06:16:08.915Z,5.72
2017-03-27T06:17:17.483Z,5.81
2017-03-27T06:18:26.683Z,5.85
2017-03-27T06:19:35.584Z,5.8
2017-03-27T06:20:44.474Z,5.78
2017-03-27T06:21:53.672Z,5.85
2017-03-27T06:23:02.887Z,5.82
2017-03-27T06:24:12.160Z,5.88
2017-03-27T06:25:20.804Z,5.82
2017-03-27T06:26:29.423Z,5.95
2017-03-27T06:27:38.323Z,5.95
2017-03-27T06:28:46.897Z,5.99
2017-03-27T06:29:55.862Z,5.98
2017-03-27T06:31:04.459Z,6.03
2017-03-27T06:32:13.559Z,6.1
2017-03-27T06:33:22.530Z,6.13
2017-03-27T06:34:31.499Z,6.1
2017-03-27T06:35:40.289Z,6.24
2017-03-27T06:36:48.999Z,6.24
2017-03-27T06:37:57.685Z,6.29
2017-03-27T06:39:06.901Z,6.37
2017-03-27T06:40:15.824Z,6.42
2017-03-27T06:41:24.780Z,6.43
2017-03-27T06:42:34.181Z,6.43
2017-03-27T06:43:43.425Z,6.51
2017-03-27T06:44:52.322Z,6.58
2017-03-27T06:46:01.586Z,6.58
2017-03-27T06:47:10.481Z,6.58
2017-03-27T06:48:19.686Z,6.6
2017-03-27T06:49:28.574Z,6.61
2017-03-27T06:50:37.482Z,6.67
2017-03-27T06:51:46.984Z,6.75
2017-03-27T06:52:55.883Z,6.72
2017-03-27T06:54:04.919Z,6.79
2017-03-27T06:55:13.493Z,6.76
2017-03-27T06:56:22.381Z,6.79
2017-03-27T06:57:30.961Z,6.83
2017-03-27T06:58:40.164Z,6.78
2017-03-27T06:59:49.393Z,6.82
2017-03-27T07:00:58.291Z,6.8
2017-03-27T07:02:07.201Z,6.88
2017-03-27T07:03:15.821Z,6.91
2017-03-27T07:04:25.023Z,7
2017-03-27T07:05:33.910Z,7.04
2017-03-27T07:06:42.804Z,6.98
2017-03-27T07:07:52.006Z,7.08
2017-03-27T07:09:00.900Z,7.13
2017-03-27T07:10:10.098Z,7.09
2017-03-27T07:11:19.309Z,7.16
2017-03-27T07:12:28.206Z,7.15
2017-03-27T07:13:37.101Z,7.18
2017-03-27T07:14:45.698Z,7.21
2017-03-27T07:15:54.915Z,7.27
2017-03-27T07:17:03.499Z,7.34
2017-03-27T07:18:12.076Z,7.36
2017-03-27T07:19:20.995Z,7.39
2017-03-27T07:20:30.209Z,7.4
2017-03-27T07:21:38.776Z,7.52
2017-03-27T07:22:47.667Z,7.58
2017-03-27T07:23:56.555Z,7.55
2017-03-27T07:25:05.441Z,7.54
2017-03-27T07:26:14.031Z,7.56
2017-03-27T07:27:23.228Z,7.7
2017-03-27T07:28:32.117Z,7.61
2017-03-27T07:29:41.005Z,7.64
2017-03-27T07:30:49.575Z,7.78
2017-03-27T07:31:58.142Z,7.86
2017-03-27T07:33:07.353Z,7.88
2017-03-27T07:34:16.568Z,7.95
2017-03-27T07:35:25.141Z,7.96
2017-03-27T07:36:34.341Z,7.98
2017-03-27T07:37:43.235Z,8.04
2017-03-27T07:38:54.076Z,8.06
2017-03-27T07:40:03.911Z,8.16
2017-03-27T07:41:12.794Z,8.21
2017-03-27T07:42:21.684Z,8.22
2017-03-27T07:43:30.575Z,8.25
2017-03-27T07:44:39.782Z,8.24
2017-03-27T07:45:48.353Z,8.35
2017-03-27T07:46:57.888Z,8.34
2017-03-27T07:48:06.625Z,8.4
2017-03-27T07:49:15.837Z,8.36
2017-03-27T07:50:24.724Z,8.43
2017-03-27T07:51:33.934Z,8.5
2017-03-27T07:52:43.144Z,8.6
2017-03-27T07:53:52.355Z,8.62
2017-03-27T07:55:01.579Z,8.6
2017-03-27T07:56:10.472Z,8.64
2017-03-27T07:57:19.612Z,8.74
2017-03-27T07:58:28.191Z,8.77
2017-03-27T07:59:37.406Z,8.89
2017-03-27T08:00:46.299Z,8.94
2017-03-27T08:01:54.872Z,8.98
2017-03-27T08:03:04.756Z,9.08
2017-03-27T08:04:13.656Z,9.08
2017-03-27T08:05:22.568Z,9.17
2017-03-27T08:06:31.457Z,9.16
2017-03-27T08:07:40.685Z,9.27
2017-03-27T08:08:49.585Z,9.27
2017-03-27T08:09:58.229Z,9.29
2017-03-27T08:11:06.885Z,9.41
2017-03-27T08:12:15.779Z,9.37
2017-03-27T08:13:24.663Z,9.41
2017-03-27T08:14:34.055Z,9.5
2017-03-27T08:15:42.686Z,9.55
2017-03-27T08:16:51.725Z,9.59
2017-03-27T08:18:00.393Z,9.7
2017-03-27T08:19:09.286Z,9.64
2017-03-27T08:20:18.507Z,9.78
2017-03-27T08:21:27.082Z,9.82
2017-03-27T08:22:35.662Z,9.84
2017-03-27T08:23:44.872Z,9.85
2017-03-27T08:24:54.085Z,9.88
2017-03-27T08:26:03.295Z,9.96
2017-03-27T08:27:12.188Z,9.98
2017-03-27T08:28:21.393Z,10
2017-03-27T08:29:30.276Z,10.07
2017-03-27T08:30:39.313Z,10.1
2017-03-27T08:31:47.914Z,10.18
2017-03-27T08:32:56.814Z,10.18
2017-03-27T08:34:05.708Z,10.23
2017-03-27T08:35:14.711Z,10.33
2017-03-27T08:36:23.285Z,10.28
2017-03-27T08:37:32.511Z,10.31
2017-03-27T08:38:41.095Z,10.28
2017-03-27T08:39:50.591Z,10.41
2017-03-27T08:40:59.484Z,10.52
2017-03-27T08:42:08.061Z,10.57
2017-03-27T08:43:16.643Z,10.63
2017-03-27T08:44:25.227Z,10.67
2017-03-27T08:45:33.802Z,10.66
2017-03-27T08:46:43.529Z,10.75
2017-03-27T08:47:52.426Z,10.75
2017-03-27T08:49:01.023Z,10.72
2017-03-27T08:50:09.595Z,10.87
2017-03-27T08:51:18.736Z,10.92
2017-03-27T08:52:27.702Z,11.02
2017-03-27T08:53:36.298Z,11.06
2017-03-27T08:54:44.916Z,11.12
2017-03-27T08:55:53.747Z,11.13
2017-03-27T08:57:02.379Z,11.21
2017-03-27T08:58:11.270Z,11.27
2017-03-27T08:59:19.852Z,11.23
2017-03-27T09:00:29.059Z,11.27
2017-03-27T09:01:38.265Z,11.28
2017-03-27T09:02:47.167Z,11.46
2017-03-27T09:03:57.238Z,11.34
2017-03-27T09:05:06.451Z,11.41
2017-03-27T09:06:15.222Z,11.52
2017-03-27T09:07:24.438Z,11.61
2017-03-27T09:08:33.330Z,11.52
2017-03-27T09:09:42.543Z,11.63
2017-03-27T09:10:51.754Z,11.61
2017-03-27T09:12:00.643Z,11.68
2017-03-27T09:13:09.219Z,11.63
2017-03-27T09:14:18.106Z,11.71
2017-03-27T09:15:27.325Z,11.78
2017-03-27T09:16:36.528Z,11.81
2017-03-27T09:17:45.426Z,11.97
2017-03-27T09:18:54.000Z,12.04
2017-03-27T09:20:03.221Z,11.95
2017-03-27T09:21:12.120Z,12.01
2017-03-27T09:22:20.695Z,12.01
2017-03-27T09:23:29.606Z,12.11
2017-03-27T09:24:38.498Z,12.11
2017-03-27T09:25:47.731Z,12.05
2017-03-27T09:26:56.616Z,12.16
2017-03-27T09:28:05.828Z,12.23
2017-03-27T09:29:15.345Z,12.2
2017-03-27T09:30:23.918Z,12.18
2017-03-27T09:31:33.442Z,12.26
2017-03-27T09:32:42.344Z,12.38
2017-03-27T09:33:50.919Z,12.41
2017-03-27T09:35:00.128Z,12.51
2017-03-27T09:36:08.700Z,12.52
2017-03-27T09:37:17.273Z,12.52
2017-03-27T09:38:26.507Z,12.62
2017-03-27T09:39:35.406Z,12.63
2017-03-27T09:40:43.979Z,12.86
2017-03-27T09:41:53.206Z,12.96
2017-03-27T09:43:02.108Z,13.03
2017-03-27T09:44:10.997Z,13.03
2017-03-27T09:45:19.574Z,13.1
2017-03-27T09:46:28.146Z,13.11
2017-03-27T09:47:37.031Z,13.1
2017-03-27T09:48:46.238Z,13.25
2017-03-27T09:49:55.129Z,13.14
2017-03-27T09:51:04.089Z,13.27
2017-03-27T09:52:13.295Z,13.32
2017-03-27T09:53:22.505Z,13.48
2017-03-27T09:54:31.406Z,13.51
2017-03-27T09:55:40.617Z,13.48
2017-03-27T09:56:49.504Z,13.48
2017-03-27T09:57:58.708Z,13.6
2017-03-27T09:59:07.284Z,13.53
2017-03-27T10:00:16.813Z,13.57
2017-03-27T10:01:26.019Z,13.62
2017-03-27T10:02:34.592Z,13.73
2017-03-27T10:03:43.172Z,13.84
2017-03-27T10:04:52.082Z,13.9
2017-03-27T10:06:01.311Z,13.88
2017-03-27T10:07:10.847Z,13.93
2017-03-27T10:08:19.425Z,14.02
2017-03-27T10:09:28.401Z,14.05
2017-03-27T10:10:37.321Z,14.05
2017-03-27T10:11:46.599Z,14.01
2017-03-27T10:12:55.536Z,14.13
2017-03-27T10:14:04.152Z,14.23
2017-03-27T10:15:13.103Z,14.24
2017-03-27T10:16:22.302Z,14.24
2017-03-27T10:17:30.882Z,14.28
2017-03-27T10:18:39.772Z,14.31
2017-03-27T10:19:48.980Z,14.3
2017-03-27T10:20:57.873Z,14.33
2017-03-27T10:22:06.453Z,14.26
2017-03-27T10:23:15.605Z,14.28
2017-03-27T10:24:24.511Z,14.42
2017-03-27T10:25:33.096Z,14.44
2017-03-27T10:26:41.998Z,14.49
2017-03-27T10:27:50.896Z,14.52
2017-03-27T10:28:59.482Z,14.57
2017-03-27T10:30:08.373Z,14.56
2017-03-27T10:31:17.261Z,14.56
2017-03-27T10:32:25.842Z,14.53
2017-03-27T10:33:34.668Z,14.56
2017-03-27T10:34:44.225Z,14.53
2017-03-27T10:35:52.804Z,14.51
2017-03-27T10:37:01.695Z,14.59
2017-03-27T10:38:10.589Z,14.67
2017-03-27T10:39:19.169Z,14.69
2017-03-27T10:40:28.059Z,14.75
2017-03-27T10:41:37.270Z,14.75
2017-03-27T10:42:46.161Z,14.75
2017-03-27T10:43:54.944Z,14.7
2017-03-27T10:45:06.477Z,14.8
2017-03-27T10:46:15.688Z,14.82
2017-03-27T10:47:24.583Z,14.86
2017-03-27T10:48:33.168Z,15.04
2017-03-27T10:49:41.752Z,15.04
2017-03-27T10:50:50.642Z,15.01
2017-03-27T10:51:59.274Z,15.12
2017-03-27T10:53:07.854Z,15.13
2017-03-27T10:54:17.066Z,15.19
2017-03-27T10:55:26.592Z,15.2
2017-03-27T10:56:35.175Z,15.23
2017-03-27T10:57:44.067Z,15.31
2017-03-27T10:58:52.645Z,15.31
2017-03-27T11:00:01.661Z,15.33
2017-03-27T11:01:10.268Z,15.3
2017-03-27T11:02:19.162Z,15.31
2017-03-27T11:03:28.370Z,15.2
2017-03-27T11:04:37.596Z,15.16
2017-03-27T11:05:46.812Z,15.27
2017-03-27T11:06:55.700Z,15.15
2017-03-27T11:08:04.271Z,15.26
2017-03-27T11:09:12.846Z,15.22
2017-03-27T11:10:21.429Z,15.19
2017-03-27T11:11:30.004Z,15.25
2017-03-27T11:12:39.210Z,15.34
2017-03-27T11:13:48.105Z,15.26
2017-03-27T11:14:57.662Z,15.34
2017-03-27T11:16:06.563Z,15.4
2017-03-27T11:17:15.142Z,15.45
2017-03-27T11:18:24.667Z,15.41
2017-03-27T11:19:33.874Z,15.37
2017-03-27T11:20:43.088Z,15.43
2017-03-27T11:21:52.315Z,15.45
2017-03-27T11:23:01.221Z,15.47
2017-03-27T11:24:10.431Z,15.47
2017-03-27T11:25:19.990Z,15.55
2017-03-27T11:26:28.631Z,15.55
2017-03-27T11:27:37.860Z,15.44
2017-03-27T11:28:46.790Z,15.49
2017-03-27T11:29:55.767Z,15.52
2017-03-27T11:31:05.187Z,15.68
2017-03-27T11:32:14.914Z,15.62
2017-03-27T11:33:24.630Z,15.63
2017-03-27T11:34:33.581Z,15.65
2017-03-27T11:35:42.616Z,15.59
2017-03-27T11:36:51.614Z,15.59
2017-03-27T11:38:00.208Z,15.63
2017-03-27T11:39:09.122Z,15.73
2017-03-27T11:40:19.058Z,15.62
2017-03-27T11:41:27.952Z,15.65
2017-03-27T11:42:36.902Z,15.67
2017-03-27T11:43:45.855Z,15.67
2017-03-27T11:44:55.114Z,15.73
2017-03-27T11:46:03.792Z,15.74
2017-03-27T11:47:13.329Z,15.74
2017-03-27T11:48:22.832Z,15.7
2017-03-27T11:49:31.431Z,15.8
2017-03-27T11:50:40.423Z,15.83
2017-03-27T11:51:49.088Z,15.86
2017-03-27T11:52:58.000Z,15.91
2017-03-27T11:54:06.601Z,15.93
2017-03-27T11:55:15.537Z,15.92
2017-03-27T11:56:24.749Z,15.91
2017-03-27T11:57:33.334Z,15.88
2017-03-27T11:58:42.585Z,15.84
2017-03-27T11:59:52.115Z,15.99
2017-03-27T12:01:01.033Z,15.92
2017-03-27T12:02:10.572Z,15.98
2017-03-27T12:03:19.522Z,16
2017-03-27T12:04:28.422Z,16.06
2017-03-27T12:05:37.030Z,15.98
2017-03-27T12:06:45.933Z,16.08
2017-03-27T12:07:54.517Z,16
2017-03-27T12:09:03.419Z,16.04
2017-03-27T12:10:12.314Z,16
2017-03-27T12:11:20.896Z,16.07
2017-03-27T12:12:30.103Z,16.1
2017-03-27T12:13:39.008Z,16
2017-03-27T12:14:47.594Z,16.04
2017-03-27T12:15:56.496Z,16.02
2017-03-27T12:17:05.731Z,16.04
2017-03-27T12:18:15.253Z,16.1
2017-03-27T12:19:24.142Z,16.14
2017-03-27T12:20:33.352Z,16.18
2017-03-27T12:21:42.242Z,16.14
2017-03-27T12:22:50.822Z,16.18
2017-03-27T12:23:59.468Z,16.27
2017-03-27T12:25:08.683Z,16.26
2017-03-27T12:26:17.630Z,16.25
2017-03-27T12:27:26.527Z,16.27
2017-03-27T12:28:36.054Z,16.26
2017-03-27T12:29:44.953Z,16.21
2017-03-27T12:30:53.528Z,16.27
2017-03-27T12:32:02.736Z,16.32
2017-03-27T12:33:11.503Z,16.3
2017-03-27T12:34:20.397Z,16.36
2017-03-27T12:35:29.308Z,16.37
2017-03-27T12:36:37.895Z,16.32
2017-03-27T12:37:46.799Z,16.3
2017-03-27T12:38:55.391Z,16.3
2017-03-27T12:40:05.280Z,16.36
2017-03-27T12:41:14.184Z,16.3
2017-03-27T12:42:22.769Z,16.4
2017-03-27T12:43:31.679Z,16.4
2017-03-27T12:44:40.612Z,16.47
2017-03-27T12:45:49.834Z,16.42
2017-03-27T12:46:58.877Z,16.47
2017-03-27T12:48:07.795Z,16.42
2017-03-27T12:49:16.687Z,16.45
2017-03-27T12:50:25.272Z,16.57
2017-03-27T12:51:33.867Z,16.49
2017-03-27T12:52:42.773Z,16.55
2017-03-27T12:53:51.351Z,16.65
2017-03-27T12:55:00.259Z,16.67
2017-03-27T12:56:09.183Z,16.66
2017-03-27T12:57:17.793Z,16.66
2017-03-27T12:58:26.711Z,16.65
2017-03-27T12:59:35.633Z,16.63
2017-03-27T13:00:44.847Z,16.66
2017-03-27T13:01:54.082Z,16.69
2017-03-27T13:03:03.045Z,16.63
2017-03-27T13:04:11.635Z,16.65
2017-03-27T13:05:20.215Z,16.65
2017-03-27T13:06:29.432Z,16.63
2017-03-27T13:07:38.645Z,16.65
2017-03-27T13:08:47.544Z,16.59
2017-03-27T13:09:56.755Z,16.62
2017-03-27T13:11:05.655Z,16.66
2017-03-27T13:12:15.202Z,16.66
2017-03-27T13:13:23.788Z,16.73
2017-03-27T13:14:32.689Z,16.77
2017-03-27T13:15:42.209Z,16.82
2017-03-27T13:16:51.738Z,16.88
2017-03-27T13:18:01.216Z,16.97
2017-03-27T13:19:10.608Z,16.84
2017-03-27T13:20:19.195Z,16.88
2017-03-27T13:21:28.119Z,16.97
2017-03-27T13:22:37.035Z,17
2017-03-27T13:23:45.928Z,17.03
2017-03-27T13:24:54.873Z,17.05
2017-03-27T13:26:04.468Z,17.03
2017-03-27T13:27:13.048Z,16.99
2017-03-27T13:28:21.943Z,16.91
2017-03-27T13:29:30.839Z,16.87
2017-03-27T13:30:39.724Z,16.9
2017-03-27T13:31:48.618Z,16.97
2017-03-27T13:32:57.191Z,16.99
2017-03-27T13:34:06.249Z,17.05
2017-03-27T13:35:15.143Z,16.99
2017-03-27T13:36:24.057Z,16.97
2017-03-27T13:37:33.091Z,16.99
2017-03-27T13:38:42.013Z,17.03
2017-03-27T13:39:50.588Z,17.03
2017-03-27T13:40:59.803Z,17.07
2017-03-27T13:42:08.705Z,17.07
2017-03-27T13:43:17.600Z,17.12
2017-03-27T13:44:26.499Z,17.13
2017-03-27T13:45:35.704Z,17.09
2017-03-27T13:46:44.281Z,17.18
2017-03-27T13:47:53.489Z,17.15
2017-03-27T13:49:02.062Z,17.18
2017-03-27T13:50:10.959Z,17.17
2017-03-27T13:51:19.864Z,17.18
2017-03-27T13:52:28.753Z,17.13
2017-03-27T13:53:37.644Z,17.06
2017-03-27T13:54:46.540Z,17.12
2017-03-27T13:55:55.447Z,17.12
2017-03-27T13:57:04.041Z,17.17
2017-03-27T13:58:13.243Z,17.15
2017-03-27T13:59:22.136Z,17.15
2017-03-27T14:00:30.709Z,17.2
2017-03-27T14:01:39.278Z,17.22
2017-03-27T14:02:47.860Z,17.2
2017-03-27T14:03:57.176Z,17.31
2017-03-27T14:05:06.291Z,17.27
2017-03-27T14:06:15.207Z,17.27
2017-03-27T14:07:24.105Z,17.35
2017-03-27T14:08:32.999Z,17.42
2017-03-27T14:09:41.580Z,17.43
2017-03-27T14:10:50.181Z,17.43
2017-03-27T14:11:59.400Z,17.35
2017-03-27T14:13:08.297Z,17.4
2017-03-27T14:14:16.919Z,17.39
2017-03-27T14:15:27.033Z,17.43
2017-03-27T14:16:36.815Z,17.46
2017-03-27T14:17:45.411Z,17.38
2017-03-27T14:18:54.386Z,17.46
2017-03-27T14:20:03.318Z,17.43
2017-03-27T14:21:12.525Z,17.45
2017-03-27T14:22:21.437Z,17.42
2017-03-27T14:23:30.021Z,17.57
2017-03-27T14:24:38.594Z,17.54
2017-03-27T14:25:47.485Z,17.55
2017-03-27T14:26:57.013Z,17.6
2017-03-27T14:28:05.592Z,17.47
2017-03-27T14:29:15.190Z,17.58
2017-03-27T14:30:24.174Z,17.6
2017-03-27T14:31:32.748Z,17.6
2017-03-27T14:32:41.958Z,17.6
2017-03-27T14:33:50.846Z,17.73
2017-03-27T14:34:59.744Z,17.68
2017-03-27T14:36:08.961Z,17.71
2017-03-27T14:37:17.852Z,17.73
2017-03-27T14:38:26.432Z,17.74
2017-03-27T14:39:35.648Z,17.77
2017-03-27T14:40:44.224Z,17.76
2017-03-27T14:41:52.800Z,17.79
2017-03-27T14:43:02.015Z,17.74
2017-03-27T14:44:10.915Z,17.81
2017-03-27T14:45:19.501Z,17.73
2017-03-27T14:46:28.391Z,17.73
2017-03-27T14:47:36.971Z,17.8
2017-03-27T14:48:45.883Z,17.86
2017-03-27T14:49:54.779Z,17.81
2017-03-27T14:51:03.676Z,17.77
2017-03-27T14:52:12.583Z,17.73
2017-03-27T14:53:21.809Z,17.76
2017-03-27T14:54:31.054Z,17.71
2017-03-27T14:55:40.154Z,17.71
2017-03-27T14:56:49.680Z,17.73
2017-03-27T14:57:58.584Z,17.74
2017-03-27T14:59:08.123Z,17.69
2017-03-27T15:00:16.704Z,17.57
2017-03-27T15:01:25.591Z,17.66
2017-03-27T15:02:34.823Z,17.57
2017-03-27T15:03:44.036Z,17.57
2017-03-27T15:04:53.561Z,17.58
2017-03-27T15:06:02.795Z,17.6
2017-03-27T15:07:11.693Z,17.66
2017-03-27T15:08:20.903Z,17.6